sensor_id;sensor_type;location;lat;lon;timestamp;P1;durP1;ratioP1;P2;durP2;ratioP2
37517;SDS011;23366;52.498;13.446;2022-10-16T00:01:09;3.80;;;1.88;;
37517;SDS011;23366;52.498;13.446;2022-10-16T00:06:02;1.83;;;1.50;;
37517;SDS011;23366;52.498;13.446;2022-10-16T00:08:29;2.55;;;1.02;;
37517;SDS011;23366;52.498;13.446;2022-10-16T00:11:02;2.38;;;1.40;;
37517;SDS011;23366;52.498;13.446;2022-10-16T00:13:33;1.70;;;1.23;;
37517;SDS011;23366;52.498;13.446;2022-10-16T00:15:59;2.15;;;1.42;;
37517;SDS011;23366;52.498;13.446;2022-10-16T00:18:26;1.58;;;1.00;;
37517;SDS011;23366;52.498;13.446;2022-10-16T00:20:53;1.92;;;1.10;;
37517;SDS011;23366;52.498;13.446;2022-10-16T00:23:19;2.03;;;1.42;;
37517;SDS011;23366;52.498;13.446;2022-10-16T00:25:45;1.13;;;0.90;;
37517;SDS011;23366;52.498;13.446;2022-10-16T00:28:18;1.80;;;0.98;;
37517;SDS011;23366;52.498;13.446;2022-10-16T00:30:44;1.30;;;1.13;;
37517;SDS011;23366;52.498;13.446;2022-10-16T00:33:09;1.52;;;1.15;;
37517;SDS011;23366;52.498;13.446;2022-10-16T00:35:35;2.30;;;1.52;;
37517;SDS011;23366;52.498;13.446;2022-10-16T00:38:00;2.50;;;1.73;;
37517;SDS011;23366;52.498;13.446;2022-10-16T00:40:26;1.40;;;1.17;;
37517;SDS011;23366;52.498;13.446;2022-10-16T00:42:53;2.45;;;1.30;;
37517;SDS011;23366;52.498;13.446;2022-10-16T00:45:18;2.53;;;1.33;;
37517;SDS011;23366;52.498;13.446;2022-10-16T00:47:44;1.90;;;1.02;;
37517;SDS011;23366;52.498;13.446;2022-10-16T00:50:27;2.13;;;1.35;;
37517;SDS011;23366;52.498;13.446;2022-10-16T00:52:56;1.73;;;1.25;;
37517;SDS011;23366;52.498;13.446;2022-10-16T00:55:23;1.85;;;1.30;;
37517;SDS011;23366;52.498;13.446;2022-10-16T00:57:49;2.50;;;1.35;;
37517;SDS011;23366;52.498;13.446;2022-10-16T01:00:18;1.60;;;1.17;;
37517;SDS011;23366;52.498;13.446;2022-10-16T01:02:55;2.10;;;1.35;;
37517;SDS011;23366;52.498;13.446;2022-10-16T01:05:33;1.38;;;1.27;;
37517;SDS011;23366;52.498;13.446;2022-10-16T01:08:09;1.48;;;1.02;;
37517;SDS011;23366;52.498;13.446;2022-10-16T01:10:44;1.55;;;0.98;;
37517;SDS011;23366;52.498;13.446;2022-10-16T01:13:27;3.45;;;1.42;;
37517;SDS011;23366;52.498;13.446;2022-10-16T01:16:12;2.90;;;1.17;;
37517;SDS011;23366;52.498;13.446;2022-10-16T01:29:51;1.83;;;1.10;;
37517;SDS011;23366;52.498;13.446;2022-10-16T01:35:11;1.75;;;1.38;;
37517;SDS011;23366;52.498;13.446;2022-10-16T01:38:00;1.58;;;0.90;;
37517;SDS011;23366;52.498;13.446;2022-10-16T01:40:29;1.52;;;1.13;;
37517;SDS011;23366;52.498;13.446;2022-10-16T01:42:59;1.15;;;0.93;;
37517;SDS011;23366;52.498;13.446;2022-10-16T01:45:40;1.13;;;1.02;;
37517;SDS011;23366;52.498;13.446;2022-10-16T01:48:09;1.55;;;1.13;;
37517;SDS011;23366;52.498;13.446;2022-10-16T01:50:39;1.23;;;0.98;;
37517;SDS011;23366;52.498;13.446;2022-10-16T01:53:07;1.30;;;1.20;;
37517;SDS011;23366;52.498;13.446;2022-10-16T01:55:36;1.02;;;0.90;;
37517;SDS011;23366;52.498;13.446;2022-10-16T01:58:10;1.42;;;0.77;;
37517;SDS011;23366;52.498;13.446;2022-10-16T02:00:38;2.45;;;1.10;;
37517;SDS011;23366;52.498;13.446;2022-10-16T02:03:07;0.95;;;0.77;;
37517;SDS011;23366;52.498;13.446;2022-10-16T02:08:02;2.08;;;1.02;;
37517;SDS011;23366;52.498;13.446;2022-10-16T02:10:27;0.80;;;0.80;;
37517;SDS011;23366;52.498;13.446;2022-10-16T02:13:10;2.08;;;0.95;;
37517;SDS011;23366;52.498;13.446;2022-10-16T02:15:39;1.42;;;1.10;;
37517;SDS011;23366;52.498;13.446;2022-10-16T02:18:05;1.52;;;0.80;;
37517;SDS011;23366;52.498;13.446;2022-10-16T02:20:33;1.02;;;0.60;;
37517;SDS011;23366;52.498;13.446;2022-10-16T02:23:05;0.68;;;0.65;;
37517;SDS011;23366;52.498;13.446;2022-10-16T02:25:37;1.35;;;0.93;;
37517;SDS011;23366;52.498;13.446;2022-10-16T02:28:09;1.50;;;1.20;;
37517;SDS011;23366;52.498;13.446;2022-10-16T02:30:51;2.30;;;1.55;;
37517;SDS011;23366;52.498;13.446;2022-10-16T02:33:22;3.10;;;1.10;;
37517;SDS011;23366;52.498;13.446;2022-10-16T02:35:49;2.58;;;1.05;;
37517;SDS011;23366;52.498;13.446;2022-10-16T02:38:16;4.40;;;1.35;;
37517;SDS011;23366;52.498;13.446;2022-10-16T02:40:43;1.52;;;1.23;;
37517;SDS011;23366;52.498;13.446;2022-10-16T02:43:09;1.00;;;0.85;;
37517;SDS011;23366;52.498;13.446;2022-10-16T02:45:35;1.05;;;0.77;;
37517;SDS011;23366;52.498;13.446;2022-10-16T02:48:01;4.30;;;1.05;;
37517;SDS011;23366;52.498;13.446;2022-10-16T02:50:27;2.50;;;1.02;;
37517;SDS011;23366;52.498;13.446;2022-10-16T02:52:52;1.90;;;1.20;;
37517;SDS011;23366;52.498;13.446;2022-10-16T02:55:18;1.63;;;1.15;;
37517;SDS011;23366;52.498;13.446;2022-10-16T02:57:43;1.65;;;0.90;;
37517;SDS011;23366;52.498;13.446;2022-10-16T03:00:09;1.38;;;0.88;;
37517;SDS011;23366;52.498;13.446;2022-10-16T03:02:38;1.17;;;0.80;;
37517;SDS011;23366;52.498;13.446;2022-10-16T03:05:04;1.85;;;1.00;;
37517;SDS011;23366;52.498;13.446;2022-10-16T03:07:30;3.45;;;0.80;;
37517;SDS011;23366;52.498;13.446;2022-10-16T03:09:55;1.33;;;0.90;;
37517;SDS011;23366;52.498;13.446;2022-10-16T03:12:21;1.45;;;1.25;;
37517;SDS011;23366;52.498;13.446;2022-10-16T03:14:47;1.80;;;1.20;;
37517;SDS011;23366;52.498;13.446;2022-10-16T03:17:12;1.45;;;0.75;;
37517;SDS011;23366;52.498;13.446;2022-10-16T03:19:38;1.75;;;1.52;;
37517;SDS011;23366;52.498;13.446;2022-10-16T03:22:04;2.45;;;0.90;;
37517;SDS011;23366;52.498;13.446;2022-10-16T03:24:29;2.10;;;0.98;;
37517;SDS011;23366;52.498;13.446;2022-10-16T03:26:55;1.15;;;0.98;;
37517;SDS011;23366;52.498;13.446;2022-10-16T03:29:20;1.67;;;0.93;;
37517;SDS011;23366;52.498;13.446;2022-10-16T03:31:46;1.35;;;1.17;;
37517;SDS011;23366;52.498;13.446;2022-10-16T03:34:13;1.33;;;0.82;;
37517;SDS011;23366;52.498;13.446;2022-10-16T03:36:38;0.70;;;0.70;;
37517;SDS011;23366;52.498;13.446;2022-10-16T03:39:04;1.10;;;1.00;;
37517;SDS011;23366;52.498;13.446;2022-10-16T03:41:30;0.73;;;0.73;;
37517;SDS011;23366;52.498;13.446;2022-10-16T03:43:55;1.20;;;0.80;;
37517;SDS011;23366;52.498;13.446;2022-10-16T03:46:21;1.15;;;0.85;;
37517;SDS011;23366;52.498;13.446;2022-10-16T03:48:46;0.85;;;0.85;;
37517;SDS011;23366;52.498;13.446;2022-10-16T03:51:12;0.73;;;0.70;;
37517;SDS011;23366;52.498;13.446;2022-10-16T03:53:37;0.70;;;0.70;;
37517;SDS011;23366;52.498;13.446;2022-10-16T03:56:03;1.40;;;0.93;;
37517;SDS011;23366;52.498;13.446;2022-10-16T03:58:29;1.08;;;0.90;;
37517;SDS011;23366;52.498;13.446;2022-10-16T04:00:54;2.22;;;1.35;;
37517;SDS011;23366;52.498;13.446;2022-10-16T04:03:20;2.00;;;1.25;;
37517;SDS011;23366;52.498;13.446;2022-10-16T04:05:46;1.20;;;1.05;;
37517;SDS011;23366;52.498;13.446;2022-10-16T04:08:11;1.52;;;0.82;;
37517;SDS011;23366;52.498;13.446;2022-10-16T04:10:37;1.38;;;1.10;;
37517;SDS011;23366;52.498;13.446;2022-10-16T04:13:02;0.80;;;0.70;;
37517;SDS011;23366;52.498;13.446;2022-10-16T04:15:28;1.33;;;1.00;;
37517;SDS011;23366;52.498;13.446;2022-10-16T04:17:53;1.67;;;1.13;;
37517;SDS011;23366;52.498;13.446;2022-10-16T04:20:19;9.30;;;1.33;;
37517;SDS011;23366;52.498;13.446;2022-10-16T04:22:45;1.67;;;0.80;;
37517;SDS011;23366;52.498;13.446;2022-10-16T04:25:10;1.02;;;0.75;;
37517;SDS011;23366;52.498;13.446;2022-10-16T04:27:36;1.30;;;0.95;;
37517;SDS011;23366;52.498;13.446;2022-10-16T04:30:02;1.30;;;0.80;;
37517;SDS011;23366;52.498;13.446;2022-10-16T04:32:28;2.20;;;1.02;;
37517;SDS011;23366;52.498;13.446;2022-10-16T04:34:54;1.52;;;1.08;;
37517;SDS011;23366;52.498;13.446;2022-10-16T04:37:23;2.10;;;1.05;;
37517;SDS011;23366;52.498;13.446;2022-10-16T04:39:50;1.52;;;0.90;;
37517;SDS011;23366;52.498;13.446;2022-10-16T04:42:15;1.70;;;1.20;;
37517;SDS011;23366;52.498;13.446;2022-10-16T04:44:41;2.20;;;0.85;;
37517;SDS011;23366;52.498;13.446;2022-10-16T04:47:06;1.20;;;0.77;;
37517;SDS011;23366;52.498;13.446;2022-10-16T04:49:32;1.40;;;1.05;;
37517;SDS011;23366;52.498;13.446;2022-10-16T04:51:57;2.92;;;0.90;;
37517;SDS011;23366;52.498;13.446;2022-10-16T04:54:23;1.08;;;0.77;;
37517;SDS011;23366;52.498;13.446;2022-10-16T04:56:48;1.05;;;0.90;;
37517;SDS011;23366;52.498;13.446;2022-10-16T04:59:15;2.17;;;0.90;;
37517;SDS011;23366;52.498;13.446;2022-10-16T05:01:42;1.70;;;1.35;;
37517;SDS011;23366;52.498;13.446;2022-10-16T05:04:08;1.42;;;0.90;;
37517;SDS011;23366;52.498;13.446;2022-10-16T05:06:34;2.42;;;1.60;;
37517;SDS011;23366;52.498;13.446;2022-10-16T05:08:59;3.22;;;1.48;;
37517;SDS011;23366;52.498;13.446;2022-10-16T05:11:24;1.98;;;1.30;;
37517;SDS011;23366;52.498;13.446;2022-10-16T05:13:50;1.58;;;1.08;;
37517;SDS011;23366;52.498;13.446;2022-10-16T05:16:15;1.42;;;1.10;;
37517;SDS011;23366;52.498;13.446;2022-10-16T05:18:41;1.25;;;1.05;;
37517;SDS011;23366;52.498;13.446;2022-10-16T05:21:06;1.83;;;1.30;;
37517;SDS011;23366;52.498;13.446;2022-10-16T05:23:32;1.83;;;1.10;;
37517;SDS011;23366;52.498;13.446;2022-10-16T05:25:58;1.38;;;1.20;;
37517;SDS011;23366;52.498;13.446;2022-10-16T05:28:25;1.40;;;0.98;;
37517;SDS011;23366;52.498;13.446;2022-10-16T05:30:51;2.25;;;1.40;;
37517;SDS011;23366;52.498;13.446;2022-10-16T05:33:19;2.08;;;1.30;;
37517;SDS011;23366;52.498;13.446;2022-10-16T05:35:45;1.83;;;1.15;;
37517;SDS011;23366;52.498;13.446;2022-10-16T05:38:11;2.55;;;0.85;;
37517;SDS011;23366;52.498;13.446;2022-10-16T05:40:37;1.65;;;1.42;;
37517;SDS011;23366;52.498;13.446;2022-10-16T05:43:02;1.27;;;1.17;;
37517;SDS011;23366;52.498;13.446;2022-10-16T05:45:28;1.33;;;1.17;;
37517;SDS011;23366;52.498;13.446;2022-10-16T05:47:53;0.90;;;0.88;;
37517;SDS011;23366;52.498;13.446;2022-10-16T05:50:19;0.60;;;0.60;;
37517;SDS011;23366;52.498;13.446;2022-10-16T05:52:44;0.68;;;0.68;;
37517;SDS011;23366;52.498;13.446;2022-10-16T05:55:10;1.08;;;1.00;;
37517;SDS011;23366;52.498;13.446;2022-10-16T05:57:35;1.20;;;1.10;;
37517;SDS011;23366;52.498;13.446;2022-10-16T06:00:01;2.83;;;1.30;;
37517;SDS011;23366;52.498;13.446;2022-10-16T06:02:28;2.08;;;1.40;;
37517;SDS011;23366;52.498;13.446;2022-10-16T06:04:54;1.40;;;1.10;;
37517;SDS011;23366;52.498;13.446;2022-10-16T06:07:19;1.75;;;1.33;;
37517;SDS011;23366;52.498;13.446;2022-10-16T06:09:48;1.80;;;0.90;;
37517;SDS011;23366;52.498;13.446;2022-10-16T06:12:15;1.20;;;1.10;;
37517;SDS011;23366;52.498;13.446;2022-10-16T06:14:40;1.58;;;1.08;;
37517;SDS011;23366;52.498;13.446;2022-10-16T06:17:06;1.77;;;0.90;;
37517;SDS011;23366;52.498;13.446;2022-10-16T06:19:31;2.45;;;1.27;;
37517;SDS011;23366;52.498;13.446;2022-10-16T06:21:57;2.10;;;1.33;;
37517;SDS011;23366;52.498;13.446;2022-10-16T06:24:23;2.03;;;0.93;;
37517;SDS011;23366;52.498;13.446;2022-10-16T06:26:49;1.85;;;0.90;;
37517;SDS011;23366;52.498;13.446;2022-10-16T06:29:14;2.00;;;1.45;;
37517;SDS011;23366;52.498;13.446;2022-10-16T06:31:40;1.85;;;1.20;;
37517;SDS011;23366;52.498;13.446;2022-10-16T06:34:05;0.95;;;0.77;;
37517;SDS011;23366;52.498;13.446;2022-10-16T06:36:34;1.23;;;1.13;;
37517;SDS011;23366;52.498;13.446;2022-10-16T06:39:00;2.75;;;1.02;;
37517;SDS011;23366;52.498;13.446;2022-10-16T06:41:25;1.25;;;0.80;;
37517;SDS011;23366;52.498;13.446;2022-10-16T06:43:51;2.75;;;1.60;;
37517;SDS011;23366;52.498;13.446;2022-10-16T06:46:18;2.80;;;1.25;;
37517;SDS011;23366;52.498;13.446;2022-10-16T06:48:45;2.00;;;1.35;;
37517;SDS011;23366;52.498;13.446;2022-10-16T06:51:12;2.20;;;1.08;;
37517;SDS011;23366;52.498;13.446;2022-10-16T06:53:40;1.92;;;0.90;;
37517;SDS011;23366;52.498;13.446;2022-10-16T06:58:34;2.95;;;1.58;;
37517;SDS011;23366;52.498;13.446;2022-10-16T07:00:59;1.30;;;1.10;;
37517;SDS011;23366;52.498;13.446;2022-10-16T07:03:25;2.28;;;1.50;;
37517;SDS011;23366;52.498;13.446;2022-10-16T07:05:50;1.27;;;1.00;;
37517;SDS011;23366;52.498;13.446;2022-10-16T07:08:16;1.30;;;1.20;;
37517;SDS011;23366;52.498;13.446;2022-10-16T07:10:41;0.80;;;0.80;;
37517;SDS011;23366;52.498;13.446;2022-10-16T07:13:07;2.85;;;1.35;;
37517;SDS011;23366;52.498;13.446;2022-10-16T07:15:33;1.52;;;0.95;;
37517;SDS011;23366;52.498;13.446;2022-10-16T07:18:00;1.30;;;1.20;;
37517;SDS011;23366;52.498;13.446;2022-10-16T07:20:26;2.25;;;1.17;;
37517;SDS011;23366;52.498;13.446;2022-10-16T07:22:51;3.08;;;2.55;;
37517;SDS011;23366;52.498;13.446;2022-10-16T07:25:17;0.95;;;0.70;;
37517;SDS011;23366;52.498;13.446;2022-10-16T07:27:43;1.10;;;0.93;;
37517;SDS011;23366;52.498;13.446;2022-10-16T07:30:08;0.88;;;0.82;;
37517;SDS011;23366;52.498;13.446;2022-10-16T07:32:34;1.35;;;1.10;;
37517;SDS011;23366;52.498;13.446;2022-10-16T07:35:00;1.77;;;0.98;;
37517;SDS011;23366;52.498;13.446;2022-10-16T07:37:25;1.30;;;0.90;;
37517;SDS011;23366;52.498;13.446;2022-10-16T07:39:51;0.93;;;0.70;;
37517;SDS011;23366;52.498;13.446;2022-10-16T07:42:16;1.60;;;0.90;;
37517;SDS011;23366;52.498;13.446;2022-10-16T07:44:42;2.58;;;0.90;;
37517;SDS011;23366;52.498;13.446;2022-10-16T07:47:07;1.10;;;0.90;;
37517;SDS011;23366;52.498;13.446;2022-10-16T07:49:33;2.40;;;0.90;;
37517;SDS011;23366;52.498;13.446;2022-10-16T07:51:59;0.65;;;0.65;;
37517;SDS011;23366;52.498;13.446;2022-10-16T07:54:24;1.15;;;0.52;;
37517;SDS011;23366;52.498;13.446;2022-10-16T07:56:50;1.45;;;0.80;;
37517;SDS011;23366;52.498;13.446;2022-10-16T07:59:15;1.10;;;0.70;;
37517;SDS011;23366;52.498;13.446;2022-10-16T08:01:41;1.20;;;0.73;;
37517;SDS011;23366;52.498;13.446;2022-10-16T08:04:07;8.30;;;1.58;;
37517;SDS011;23366;52.498;13.446;2022-10-16T08:06:38;1.45;;;1.10;;
37517;SDS011;23366;52.498;13.446;2022-10-16T08:09:04;0.93;;;0.80;;
37517;SDS011;23366;52.498;13.446;2022-10-16T08:11:31;0.88;;;0.73;;
37517;SDS011;23366;52.498;13.446;2022-10-16T08:13:56;3.08;;;1.25;;
37517;SDS011;23366;52.498;13.446;2022-10-16T08:16:22;3.15;;;0.95;;
37517;SDS011;23366;52.498;13.446;2022-10-16T08:18:47;2.95;;;1.02;;
37517;SDS011;23366;52.498;13.446;2022-10-16T08:21:17;0.80;;;0.73;;
37517;SDS011;23366;52.498;13.446;2022-10-16T08:23:45;3.47;;;0.40;;
37517;SDS011;23366;52.498;13.446;2022-10-16T08:26:11;1.70;;;0.80;;
37517;SDS011;23366;52.498;13.446;2022-10-16T08:28:37;1.38;;;1.00;;
37517;SDS011;23366;52.498;13.446;2022-10-16T08:31:06;3.33;;;1.23;;
37517;SDS011;23366;52.498;13.446;2022-10-16T08:33:33;0.52;;;0.47;;
37517;SDS011;23366;52.498;13.446;2022-10-16T08:36:01;1.27;;;0.93;;
37517;SDS011;23366;52.498;13.446;2022-10-16T08:38:28;2.17;;;0.80;;
37517;SDS011;23366;52.498;13.446;2022-10-16T08:40:54;3.10;;;1.17;;
37517;SDS011;23366;52.498;13.446;2022-10-16T08:43:42;3.35;;;0.85;;
37517;SDS011;23366;52.498;13.446;2022-10-16T08:49:01;1.08;;;0.75;;
37517;SDS011;23366;52.498;13.446;2022-10-16T08:51:32;1.20;;;0.85;;
37517;SDS011;23366;52.498;13.446;2022-10-16T08:54:03;1.20;;;0.98;;
37517;SDS011;23366;52.498;13.446;2022-10-16T08:56:31;0.95;;;0.70;;
37517;SDS011;23366;52.498;13.446;2022-10-16T08:58:58;0.98;;;0.57;;
37517;SDS011;23366;52.498;13.446;2022-10-16T09:01:25;1.63;;;0.77;;
37517;SDS011;23366;52.498;13.446;2022-10-16T09:04:13;3.35;;;0.75;;
37517;SDS011;23366;52.498;13.446;2022-10-16T09:10:03;0.60;;;0.43;;
37517;SDS011;23366;52.498;13.446;2022-10-16T09:15:20;2.42;;;1.02;;
37517;SDS011;23366;52.498;13.446;2022-10-16T09:18:21;1.52;;;0.45;;
37517;SDS011;23366;52.498;13.446;2022-10-16T09:21:15;0.82;;;0.77;;
37517;SDS011;23366;52.498;13.446;2022-10-16T09:23:46;1.25;;;0.55;;
37517;SDS011;23366;52.498;13.446;2022-10-16T09:26:13;0.88;;;0.57;;
37517;SDS011;23366;52.498;13.446;2022-10-16T09:28:40;3.40;;;0.55;;
37517;SDS011;23366;52.498;13.446;2022-10-16T09:31:09;3.55;;;0.88;;
37517;SDS011;23366;52.498;13.446;2022-10-16T09:33:40;1.08;;;0.73;;
37517;SDS011;23366;52.498;13.446;2022-10-16T09:36:09;2.85;;;1.23;;
37517;SDS011;23366;52.498;13.446;2022-10-16T09:38:37;0.88;;;0.50;;
37517;SDS011;23366;52.498;13.446;2022-10-16T09:41:12;1.55;;;0.60;;
37517;SDS011;23366;52.498;13.446;2022-10-16T09:43:57;5.50;;;0.88;;
37517;SDS011;23366;52.498;13.446;2022-10-16T09:46:25;4.47;;;1.17;;
37517;SDS011;23366;52.498;13.446;2022-10-16T09:48:59;1.10;;;0.55;;
37517;SDS011;23366;52.498;13.446;2022-10-16T09:51:27;1.30;;;0.80;;
37517;SDS011;23366;52.498;13.446;2022-10-16T09:56:24;0.40;;;0.40;;
37517;SDS011;23366;52.498;13.446;2022-10-16T09:59:02;0.50;;;0.40;;
37517;SDS011;23366;52.498;13.446;2022-10-16T10:01:37;0.70;;;0.60;;
37517;SDS011;23366;52.498;13.446;2022-10-16T10:04:05;1.15;;;0.80;;
37517;SDS011;23366;52.498;13.446;2022-10-16T10:09:15;0.73;;;0.45;;
37517;SDS011;23366;52.498;13.446;2022-10-16T10:12:01;0.50;;;0.40;;
37517;SDS011;23366;52.498;13.446;2022-10-16T10:14:35;1.02;;;0.60;;
37517;SDS011;23366;52.498;13.446;2022-10-16T10:17:16;1.48;;;0.82;;
37517;SDS011;23366;52.498;13.446;2022-10-16T10:25:15;1.45;;;0.45;;
37517;SDS011;23366;52.498;13.446;2022-10-16T10:28:06;1.38;;;0.52;;
37517;SDS011;23366;52.498;13.446;2022-10-16T10:33:59;0.63;;;0.47;;
37517;SDS011;23366;52.498;13.446;2022-10-16T10:36:40;2.78;;;1.27;;
37517;SDS011;23366;52.498;13.446;2022-10-16T10:39:12;1.30;;;0.70;;
37517;SDS011;23366;52.498;13.446;2022-10-16T10:44:37;1.08;;;0.60;;
37517;SDS011;23366;52.498;13.446;2022-10-16T10:55:24;1.88;;;0.73;;
37517;SDS011;23366;52.498;13.446;2022-10-16T11:03:46;1.23;;;0.75;;
37517;SDS011;23366;52.498;13.446;2022-10-16T11:06:36;1.02;;;0.60;;
37517;SDS011;23366;52.498;13.446;2022-10-16T11:09:17;3.72;;;1.35;;
37517;SDS011;23366;52.498;13.446;2022-10-16T11:11:52;5.13;;;1.13;;
37517;SDS011;23366;52.498;13.446;2022-10-16T11:14:40;1.02;;;0.95;;
37517;SDS011;23366;52.498;13.446;2022-10-16T11:17:33;1.42;;;0.50;;
37517;SDS011;23366;52.498;13.446;2022-10-16T11:23:01;1.25;;;0.60;;
37517;SDS011;23366;52.498;13.446;2022-10-16T11:25:32;0.73;;;0.40;;
37517;SDS011;23366;52.498;13.446;2022-10-16T11:28:08;0.60;;;0.40;;
37517;SDS011;23366;52.498;13.446;2022-10-16T11:30:40;0.73;;;0.40;;
37517;SDS011;23366;52.498;13.446;2022-10-16T11:44:24;0.73;;;0.40;;
37517;SDS011;23366;52.498;13.446;2022-10-16T11:49:47;1.17;;;0.50;;
37517;SDS011;23366;52.498;13.446;2022-10-16T11:52:42;1.70;;;0.45;;
37517;SDS011;23366;52.498;13.446;2022-10-16T11:55:20;1.00;;;0.70;;
37517;SDS011;23366;52.498;13.446;2022-10-16T11:57:49;0.50;;;0.38;;
37517;SDS011;23366;52.498;13.446;2022-10-16T12:00:33;1.13;;;0.55;;
37517;SDS011;23366;52.498;13.446;2022-10-16T12:03:18;1.55;;;0.88;;
37517;SDS011;23366;52.498;13.446;2022-10-16T12:09:28;0.80;;;0.60;;
37517;SDS011;23366;52.498;13.446;2022-10-16T12:15:00;1.52;;;1.33;;
37517;SDS011;23366;52.498;13.446;2022-10-16T12:17:45;4.00;;;2.60;;
37517;SDS011;23366;52.498;13.446;2022-10-16T12:20:31;3.80;;;2.60;;
37517;SDS011;23366;52.498;13.446;2022-10-16T12:23:06;11.40;;;5.30;;
37517;SDS011;23366;52.498;13.446;2022-10-16T12:25:53;2.40;;;2.17;;
37517;SDS011;23366;52.498;13.446;2022-10-16T12:28:27;2.28;;;1.58;;
37517;SDS011;23366;52.498;13.446;2022-10-16T12:30:58;1.42;;;0.93;;
37517;SDS011;23366;52.498;13.446;2022-10-16T12:34:01;1.42;;;1.00;;
37517;SDS011;23366;52.498;13.446;2022-10-16T12:36:36;1.73;;;1.35;;
37517;SDS011;23366;52.498;13.446;2022-10-16T12:39:04;2.53;;;0.98;;
37517;SDS011;23366;52.498;13.446;2022-10-16T12:42:00;1.00;;;0.90;;
37517;SDS011;23366;52.498;13.446;2022-10-16T12:44:32;2.17;;;1.07;;
37517;SDS011;23366;52.498;13.446;2022-10-16T12:47:01;1.65;;;1.10;;
37517;SDS011;23366;52.498;13.446;2022-10-16T12:49:55;2.20;;;1.25;;
37517;SDS011;23366;52.498;13.446;2022-10-16T12:52:47;1.70;;;0.70;;
37517;SDS011;23366;52.498;13.446;2022-10-16T12:55:22;1.10;;;0.60;;
37517;SDS011;23366;52.498;13.446;2022-10-16T12:58:16;2.25;;;0.75;;
37517;SDS011;23366;52.498;13.446;2022-10-16T13:01:04;0.68;;;0.50;;
37517;SDS011;23366;52.498;13.446;2022-10-16T13:25:09;1.58;;;0.70;;
37517;SDS011;23366;52.498;13.446;2022-10-16T13:27:49;1.92;;;0.82;;
37517;SDS011;23366;52.498;13.446;2022-10-16T13:39:28;0.60;;;0.50;;
37517;SDS011;23366;52.498;13.446;2022-10-16T13:42:10;0.75;;;0.60;;
37517;SDS011;23366;52.498;13.446;2022-10-16T13:44:47;0.85;;;0.60;;
37517;SDS011;23366;52.498;13.446;2022-10-16T13:47:29;0.47;;;0.30;;
37517;SDS011;23366;52.498;13.446;2022-10-16T13:50:12;1.05;;;0.45;;
37517;SDS011;23366;52.498;13.446;2022-10-16T13:52:42;0.93;;;0.55;;
37517;SDS011;23366;52.498;13.446;2022-10-16T13:55:21;1.88;;;0.85;;
37517;SDS011;23366;52.498;13.446;2022-10-16T13:57:47;1.08;;;0.77;;
37517;SDS011;23366;52.498;13.446;2022-10-16T14:00:23;0.85;;;0.57;;
37517;SDS011;23366;52.498;13.446;2022-10-16T14:03:11;0.85;;;0.50;;
37517;SDS011;23366;52.498;13.446;2022-10-16T14:05:44;0.95;;;0.47;;
37517;SDS011;23366;52.498;13.446;2022-10-16T14:08:19;1.00;;;0.60;;
37517;SDS011;23366;52.498;13.446;2022-10-16T14:10:52;0.63;;;0.35;;
37517;SDS011;23366;52.498;13.446;2022-10-16T14:13:22;2.97;;;0.60;;
37517;SDS011;23366;52.498;13.446;2022-10-16T14:15:55;0.50;;;0.40;;
37517;SDS011;23366;52.498;13.446;2022-10-16T14:18:24;0.70;;;0.40;;
37517;SDS011;23366;52.498;13.446;2022-10-16T14:20:51;1.98;;;0.70;;
37517;SDS011;23366;52.498;13.446;2022-10-16T14:23:22;2.20;;;0.73;;
37517;SDS011;23366;52.498;13.446;2022-10-16T14:25:53;0.95;;;0.55;;
37517;SDS011;23366;52.498;13.446;2022-10-16T14:28:20;1.17;;;0.40;;
37517;SDS011;23366;52.498;13.446;2022-10-16T14:30:52;0.93;;;0.52;;
37517;SDS011;23366;52.498;13.446;2022-10-16T14:33:20;0.15;;;0.15;;
37517;SDS011;23366;52.498;13.446;2022-10-16T14:36:05;0.38;;;0.30;;
37517;SDS011;23366;52.498;13.446;2022-10-16T14:38:34;0.93;;;0.75;;
37517;SDS011;23366;52.498;13.446;2022-10-16T14:41:00;1.75;;;1.05;;
37517;SDS011;23366;52.498;13.446;2022-10-16T14:43:36;0.98;;;0.60;;
37517;SDS011;23366;52.498;13.446;2022-10-16T14:46:06;1.27;;;0.70;;
37517;SDS011;23366;52.498;13.446;2022-10-16T14:48:46;1.33;;;0.82;;
37517;SDS011;23366;52.498;13.446;2022-10-16T14:51:15;2.70;;;1.23;;
37517;SDS011;23366;52.498;13.446;2022-10-16T14:53:41;1.52;;;0.80;;
37517;SDS011;23366;52.498;13.446;2022-10-16T14:56:07;1.38;;;0.82;;
37517;SDS011;23366;52.498;13.446;2022-10-16T14:58:39;1.02;;;0.77;;
37517;SDS011;23366;52.498;13.446;2022-10-16T15:01:09;0.95;;;0.80;;
37517;SDS011;23366;52.498;13.446;2022-10-16T15:03:36;0.75;;;0.75;;
37517;SDS011;23366;52.498;13.446;2022-10-16T15:06:02;1.38;;;1.20;;
37517;SDS011;23366;52.498;13.446;2022-10-16T15:08:28;1.15;;;0.70;;
37517;SDS011;23366;52.498;13.446;2022-10-16T15:10:54;1.35;;;0.63;;
37517;SDS011;23366;52.498;13.446;2022-10-16T15:13:19;1.55;;;0.60;;
37517;SDS011;23366;52.498;13.446;2022-10-16T15:15:45;1.05;;;0.70;;
37517;SDS011;23366;52.498;13.446;2022-10-16T15:18:12;1.00;;;0.60;;
37517;SDS011;23366;52.498;13.446;2022-10-16T15:20:40;1.42;;;0.82;;
37517;SDS011;23366;52.498;13.446;2022-10-16T15:23:06;1.15;;;0.70;;
37517;SDS011;23366;52.498;13.446;2022-10-16T15:25:45;0.82;;;0.45;;
37517;SDS011;23366;52.498;13.446;2022-10-16T15:28:18;1.77;;;1.25;;
37517;SDS011;23366;52.498;13.446;2022-10-16T15:30:45;5.65;;;2.33;;
37517;SDS011;23366;52.498;13.446;2022-10-16T15:33:15;2.38;;;1.10;;
37517;SDS011;23366;52.498;13.446;2022-10-16T15:39:14;2.42;;;1.35;;
37517;SDS011;23366;52.498;13.446;2022-10-16T15:42:21;1.58;;;1.00;;
37517;SDS011;23366;52.498;13.446;2022-10-16T15:45:28;1.52;;;0.85;;
37517;SDS011;23366;52.498;13.446;2022-10-16T15:50:47;1.13;;;0.88;;
37517;SDS011;23366;52.498;13.446;2022-10-16T15:53:29;2.45;;;1.10;;
37517;SDS011;23366;52.498;13.446;2022-10-16T15:56:40;4.97;;;1.35;;
37517;SDS011;23366;52.498;13.446;2022-10-16T15:59:34;0.93;;;0.65;;
37517;SDS011;23366;52.498;13.446;2022-10-16T16:02:48;2.28;;;1.33;;
37517;SDS011;23366;52.498;13.446;2022-10-16T16:05:17;5.20;;;3.50;;
37517;SDS011;23366;52.498;13.446;2022-10-16T16:07:47;5.10;;;4.15;;
37517;SDS011;23366;52.498;13.446;2022-10-16T16:10:13;3.05;;;2.40;;
37517;SDS011;23366;52.498;13.446;2022-10-16T16:12:39;4.88;;;2.25;;
37517;SDS011;23366;52.498;13.446;2022-10-16T16:15:07;4.85;;;2.28;;
37517;SDS011;23366;52.498;13.446;2022-10-16T16:17:34;4.22;;;2.30;;
37517;SDS011;23366;52.498;13.446;2022-10-16T16:20:02;3.20;;;1.98;;
37517;SDS011;23366;52.498;13.446;2022-10-16T16:22:29;2.13;;;1.60;;
37517;SDS011;23366;52.498;13.446;2022-10-16T16:24:55;10.38;;;6.03;;
37517;SDS011;23366;52.498;13.446;2022-10-16T16:27:21;17.17;;;8.70;;
37517;SDS011;23366;52.498;13.446;2022-10-16T16:29:49;16.08;;;9.63;;
37517;SDS011;23366;52.498;13.446;2022-10-16T16:32:23;15.75;;;9.32;;
37517;SDS011;23366;52.498;13.446;2022-10-16T16:34:51;16.55;;;10.38;;
37517;SDS011;23366;52.498;13.446;2022-10-16T16:37:31;15.70;;;8.85;;
37517;SDS011;23366;52.498;13.446;2022-10-16T16:39:58;10.95;;;7.75;;
37517;SDS011;23366;52.498;13.446;2022-10-16T16:42:26;13.95;;;7.47;;
37517;SDS011;23366;52.498;13.446;2022-10-16T16:44:52;10.30;;;6.78;;
37517;SDS011;23366;52.498;13.446;2022-10-16T16:47:18;9.27;;;7.28;;
37517;SDS011;23366;52.498;13.446;2022-10-16T16:49:45;10.93;;;6.13;;
37517;SDS011;23366;52.498;13.446;2022-10-16T16:52:12;11.45;;;6.18;;
37517;SDS011;23366;52.498;13.446;2022-10-16T16:54:38;12.68;;;7.93;;